createdAt,value
2017-07-24T00:02:26.014Z,19.10
2017-07-24T00:04:56.990Z,19.10
2017-07-24T00:07:27.961Z,19.00
2017-07-24T00:09:59.641Z,19.00
2017-07-24T00:12:31.425Z,18.90
2017-07-24T00:15:03.054Z,18.90
2017-07-24T00:17:33.396Z,18.90
2017-07-24T00:20:05.146Z,18.90
2017-07-24T00:22:36.907Z,18.90
2017-07-24T00:25:06.889Z,18.90
2017-07-24T00:27:39.279Z,18.90
2017-07-24T00:30:12.363Z,18.90
2017-07-24T00:32:42.169Z,18.90
2017-07-24T00:35:12.236Z,19.00
2017-07-24T00:37:41.503Z,19.00
2017-07-24T00:40:12.019Z,19.00
2017-07-24T00:42:44.377Z,19.00
2017-07-24T00:45:17.203Z,19.00
2017-07-24T00:47:47.555Z,19.00
2017-07-24T00:50:18.459Z,18.90
2017-07-24T00:52:48.952Z,18.90
2017-07-24T00:55:20.667Z,19.00
2017-07-24T00:57:51.255Z,18.90
2017-07-24T01:00:21.809Z,19.00
2017-07-24T01:02:51.743Z,19.00
2017-07-24T01:05:22.004Z,18.90
2017-07-24T01:07:51.434Z,18.80
2017-07-24T01:10:21.353Z,18.90
2017-07-24T01:12:50.856Z,18.90
2017-07-24T01:15:21.516Z,18.80
2017-07-24T01:17:52.134Z,18.80
2017-07-24T01:20:22.497Z,18.80
2017-07-24T01:22:52.507Z,18.70
2017-07-24T01:25:23.244Z,18.70
2017-07-24T01:27:53.966Z,18.60
2017-07-24T01:30:23.801Z,18.60
2017-07-24T01:32:54.914Z,18.60
2017-07-24T01:35:28.644Z,18.60
2017-07-24T01:38:02.442Z,18.60
2017-07-24T01:40:33.032Z,18.60
2017-07-24T01:43:02.867Z,18.50
2017-07-24T01:45:33.963Z,18.40
2017-07-24T01:48:03.904Z,18.40
2017-07-24T01:50:34.362Z,18.40
2017-07-24T01:53:05.737Z,18.50
2017-07-24T01:55:35.545Z,18.60
2017-07-24T01:58:05.623Z,18.50
2017-07-24T02:00:39.041Z,18.50
2017-07-24T02:03:10.139Z,18.50
2017-07-24T02:05:40.868Z,18.50
2017-07-24T02:08:15.072Z,18.50
2017-07-24T02:10:46.515Z,18.50
2017-07-24T02:13:18.583Z,18.50
2017-07-24T02:15:48.882Z,18.50
2017-07-24T02:18:19.745Z,18.50
2017-07-24T02:20:50.217Z,18.50
2017-07-24T02:23:20.715Z,18.50
2017-07-24T02:25:50.705Z,18.60
2017-07-24T02:28:21.152Z,18.60
2017-07-24T02:30:52.136Z,18.50
2017-07-24T02:33:22.464Z,18.60
2017-07-24T02:35:53.399Z,18.60
2017-07-24T02:38:24.119Z,18.60
2017-07-24T02:40:55.013Z,18.60
2017-07-24T02:43:24.917Z,18.60
2017-07-24T02:45:54.944Z,18.50
2017-07-24T02:48:26.113Z,18.40
2017-07-24T02:50:55.773Z,18.40
2017-07-24T02:53:25.326Z,18.40
2017-07-24T02:55:57.094Z,18.40
2017-07-24T02:58:29.336Z,18.40
2017-07-24T03:01:01.057Z,18.50
2017-07-24T03:03:34.027Z,18.50
2017-07-24T03:06:04.730Z,18.40
2017-07-24T03:08:37.738Z,18.40
2017-07-24T03:11:08.852Z,18.40
2017-07-24T03:13:41.806Z,18.40
2017-07-24T03:16:12.143Z,18.40
2017-07-24T03:18:41.649Z,18.40
2017-07-24T03:21:13.452Z,18.40
2017-07-24T03:23:44.142Z,18.40
2017-07-24T03:26:16.360Z,18.40
2017-07-24T03:28:47.257Z,18.40
2017-07-24T03:31:16.144Z,18.30
2017-07-24T03:33:46.630Z,18.30
2017-07-24T03:36:17.813Z,18.30
2017-07-24T03:38:47.132Z,18.30
2017-07-24T03:41:17.724Z,18.30
2017-07-24T03:43:49.648Z,18.20
2017-07-24T03:46:22.032Z,18.20
2017-07-24T03:48:53.056Z,18.30
2017-07-24T03:51:25.042Z,18.30
2017-07-24T03:53:57.284Z,18.30
2017-07-24T03:56:28.634Z,18.30
2017-07-24T03:59:00.217Z,18.30
2017-07-24T04:01:32.190Z,18.30
2017-07-24T04:04:03.855Z,18.30
2017-07-24T04:06:33.933Z,18.30
2017-07-24T04:09:08.122Z,18.30
2017-07-24T04:11:39.811Z,18.30
2017-07-24T04:14:09.106Z,18.30
2017-07-24T04:16:37.188Z,18.30
2017-07-24T04:19:05.293Z,18.20
2017-07-24T04:21:33.380Z,18.20
2017-07-24T04:24:01.500Z,18.10
2017-07-24T04:26:29.579Z,18.10
2017-07-24T04:28:57.665Z,18.10
2017-07-24T04:31:25.901Z,18.10
2017-07-24T04:33:53.978Z,18.00
2017-07-24T04:36:22.117Z,18.10
2017-07-24T04:38:50.960Z,18.00
2017-07-24T04:41:19.044Z,18.00
2017-07-24T04:43:47.172Z,17.90
2017-07-24T04:46:15.269Z,18.00
2017-07-24T04:48:43.357Z,18.00
2017-07-24T04:51:11.599Z,18.00
2017-07-24T04:53:39.685Z,18.00
2017-07-24T04:56:07.801Z,18.00
2017-07-24T04:58:35.891Z,18.00
2017-07-24T05:01:03.999Z,18.00
2017-07-24T05:03:32.111Z,18.00
2017-07-24T05:06:00.199Z,18.00
2017-07-24T05:08:29.200Z,18.10
2017-07-24T05:11:08.525Z,18.10
2017-07-24T05:13:39.789Z,18.10
2017-07-24T05:16:12.661Z,18.20
2017-07-24T05:18:43.501Z,18.20
2017-07-24T05:21:16.198Z,18.20
2017-07-24T05:23:49.414Z,18.30
2017-07-24T05:26:19.662Z,18.20
2017-07-24T05:28:51.233Z,18.30
2017-07-24T05:31:20.993Z,18.30
2017-07-24T05:33:51.550Z,18.30
2017-07-24T05:36:23.783Z,18.30
2017-07-24T05:38:53.953Z,18.30
2017-07-24T05:41:25.845Z,18.30
2017-07-24T05:43:58.112Z,18.30
2017-07-24T05:46:31.729Z,18.30
2017-07-24T05:49:03.675Z,18.30
2017-07-24T05:51:35.374Z,18.20
2017-07-24T05:54:05.192Z,18.20
2017-07-24T05:56:37.365Z,18.20
2017-07-24T05:59:07.240Z,18.20
2017-07-24T06:01:40.492Z,18.30
2017-07-24T06:04:11.563Z,18.30
2017-07-24T06:06:45.172Z,18.30
2017-07-24T06:09:17.344Z,18.30
2017-07-24T06:11:48.559Z,18.30
2017-07-24T06:14:19.058Z,18.40
2017-07-24T06:16:52.217Z,18.40
2017-07-24T06:19:24.390Z,18.50
2017-07-24T06:21:55.588Z,18.40
2017-07-24T06:24:27.802Z,18.50
2017-07-24T06:27:01.621Z,18.50
2017-07-24T06:29:32.424Z,18.50
2017-07-24T06:32:05.259Z,18.60
2017-07-24T06:34:38.177Z,18.60
2017-07-24T06:37:10.665Z,18.70
2017-07-24T06:39:44.011Z,18.90
2017-07-24T06:42:14.322Z,18.90
2017-07-24T06:44:44.695Z,18.90
2017-07-24T06:47:15.789Z,19.00
2017-07-24T06:49:48.734Z,19.00
2017-07-24T06:52:19.870Z,19.00
2017-07-24T06:54:50.126Z,19.00
2017-07-24T06:57:20.289Z,19.00
2017-07-24T06:59:51.193Z,19.00
2017-07-24T07:02:22.425Z,19.10
2017-07-24T07:04:53.742Z,19.00
2017-07-24T07:07:27.011Z,19.00
2017-07-24T07:09:57.263Z,19.00
2017-07-24T07:12:29.355Z,19.00
2017-07-24T07:14:58.605Z,19.00
2017-07-24T07:17:29.758Z,19.00
2017-07-24T07:20:01.611Z,19.00
2017-07-24T07:22:34.146Z,19.00
2017-07-24T07:25:05.940Z,19.10
2017-07-24T07:27:38.785Z,19.10
2017-07-24T07:30:10.500Z,19.10
2017-07-24T07:32:39.893Z,19.10
2017-07-24T07:35:11.493Z,19.10
2017-07-24T07:37:42.888Z,19.00
2017-07-24T07:40:15.005Z,19.00
2017-07-24T07:42:46.055Z,19.10
2017-07-24T07:45:19.036Z,18.90
2017-07-24T07:47:51.631Z,18.90
2017-07-24T07:50:23.674Z,19.00
2017-07-24T07:52:54.230Z,18.90
2017-07-24T07:55:24.729Z,18.80
2017-07-24T07:57:55.673Z,18.80
2017-07-24T08:00:29.293Z,18.90
2017-07-24T08:03:00.583Z,18.90
2017-07-24T08:05:31.044Z,18.80
2017-07-24T08:08:04.351Z,18.80
2017-07-24T08:10:36.213Z,18.80
2017-07-24T08:13:06.529Z,18.80
2017-07-24T08:15:36.758Z,18.60
2017-07-24T08:18:07.617Z,18.60
2017-07-24T08:20:41.489Z,18.50
2017-07-24T08:23:14.476Z,18.60
2017-07-24T08:25:46.876Z,18.60
2017-07-24T08:28:17.653Z,18.60
2017-07-24T08:30:48.868Z,18.50
2017-07-24T08:33:21.099Z,18.50
2017-07-24T08:35:52.920Z,18.60
2017-07-24T08:38:23.438Z,18.60
2017-07-24T08:40:54.507Z,18.70
2017-07-24T08:43:25.447Z,18.60
2017-07-24T08:45:57.035Z,18.60
2017-07-24T08:48:28.913Z,18.70
2017-07-24T08:50:59.227Z,18.60
2017-07-24T08:53:31.993Z,18.60
2017-07-24T08:56:02.342Z,18.50
2017-07-24T08:58:33.272Z,18.40
2017-07-24T09:01:05.100Z,18.30
2017-07-24T09:03:37.620Z,18.20
2017-07-24T09:06:08.041Z,18.20
2017-07-24T09:08:39.742Z,18.10
2017-07-24T09:11:11.971Z,18.10
2017-07-24T09:13:41.726Z,18.10
2017-07-24T09:16:14.666Z,18.20
2017-07-24T09:18:45.329Z,18.20
2017-07-24T09:21:17.696Z,18.20
2017-07-24T09:23:49.155Z,18.20
2017-07-24T09:26:20.054Z,18.20
2017-07-24T09:28:51.951Z,18.20
2017-07-24T09:31:22.639Z,18.30
2017-07-24T09:33:53.016Z,18.40
2017-07-24T09:36:23.629Z,18.40
2017-07-24T09:38:54.461Z,18.40
2017-07-24T09:41:29.090Z,18.50
2017-07-24T09:44:01.248Z,18.40
2017-07-24T09:46:33.547Z,18.50
2017-07-24T09:49:10.256Z,18.40
2017-07-24T09:51:45.248Z,18.30
2017-07-24T09:54:16.740Z,18.10
2017-07-24T09:56:49.513Z,18.00
2017-07-24T09:59:20.595Z,18.10
2017-07-24T10:01:53.010Z,18.10
2017-07-24T10:04:24.287Z,18.10
2017-07-24T10:06:55.235Z,18.10
2017-07-24T10:09:25.874Z,18.20
2017-07-24T10:12:02.811Z,18.30
2017-07-24T10:14:34.975Z,18.30
2017-07-24T10:17:07.920Z,18.20
2017-07-24T10:19:39.573Z,18.10
2017-07-24T10:22:10.931Z,18.00
2017-07-24T10:24:43.055Z,17.90
2017-07-24T10:27:13.893Z,17.90
2017-07-24T10:29:46.346Z,17.90
2017-07-24T10:32:15.834Z,17.90
2017-07-24T10:34:45.751Z,18.00
2017-07-24T10:37:18.648Z,18.10
2017-07-24T10:39:50.035Z,18.40
2017-07-24T10:42:21.459Z,18.40
2017-07-24T10:44:52.389Z,18.50
2017-07-24T10:47:25.585Z,18.50
2017-07-24T10:49:55.842Z,18.40
2017-07-24T10:52:26.433Z,18.30
2017-07-24T10:54:58.662Z,18.40
2017-07-24T11:00:47.173Z,18.60
2017-07-24T11:03:17.729Z,18.90
2017-07-24T11:05:49.914Z,19.00
2017-07-24T11:08:19.884Z,19.20
2017-07-24T11:10:52.482Z,19.20
2017-07-24T11:13:29.456Z,19.30
2017-07-24T11:16:03.202Z,19.20
2017-07-24T11:18:38.557Z,19.20
2017-07-24T11:21:08.297Z,19.10
2017-07-24T11:23:51.125Z,18.90
2017-07-24T11:26:23.126Z,18.80
2017-07-24T11:28:53.629Z,18.70
2017-07-24T11:31:24.493Z,18.50
2017-07-24T11:33:58.865Z,18.50
2017-07-24T11:36:31.260Z,18.40
2017-07-24T11:39:05.342Z,18.50
2017-07-24T11:41:39.292Z,18.60
2017-07-24T11:44:09.614Z,18.50
2017-07-24T11:46:39.974Z,18.60
2017-07-24T11:49:11.617Z,18.70
2017-07-24T11:51:42.882Z,19.00
2017-07-24T11:54:15.177Z,19.20
2017-07-24T11:56:45.632Z,19.20
2017-07-24T11:59:18.361Z,19.60
2017-07-24T12:04:25.059Z,19.80
2017-07-24T12:06:56.319Z,19.70
2017-07-24T12:09:29.591Z,19.70
2017-07-24T12:12:01.854Z,19.50
2017-07-24T12:14:32.909Z,19.40
2017-07-24T12:17:05.174Z,19.60
2017-07-24T12:19:38.091Z,20.00
2017-07-24T12:24:45.646Z,20.50
2017-07-24T12:27:14.488Z,20.70
2017-07-24T12:29:42.580Z,20.80
2017-07-24T12:32:14.476Z,20.90
2017-07-24T12:34:46.280Z,20.80
2017-07-24T12:37:17.130Z,20.80
2017-07-24T12:39:47.575Z,20.80
2017-07-24T12:42:17.847Z,20.70
2017-07-24T12:44:47.620Z,20.60
2017-07-24T12:47:17.957Z,20.40
2017-07-24T12:49:49.000Z,20.10
2017-07-24T13:14:44.804Z,20.30
2017-07-24T13:17:12.912Z,20.40
2017-07-24T13:19:41.012Z,20.30
2017-07-24T13:22:09.946Z,20.40
2017-07-24T13:24:41.627Z,20.40
2017-07-24T13:27:12.446Z,20.40
2017-07-24T13:29:47.218Z,20.30
2017-07-24T13:32:17.405Z,20.30
2017-07-24T13:34:46.976Z,20.30
2017-07-24T13:37:18.665Z,20.30
2017-07-24T13:39:49.077Z,20.40
2017-07-24T13:42:20.297Z,20.70
2017-07-24T13:44:51.292Z,20.90
2017-07-24T13:47:23.140Z,20.90
2017-07-24T13:49:52.009Z,20.90
2017-07-24T13:52:23.518Z,20.80
2017-07-24T13:54:56.627Z,20.80
2017-07-24T13:57:28.056Z,20.70
2017-07-24T13:59:59.031Z,20.60
2017-07-24T14:02:32.722Z,20.70
2017-07-24T14:05:02.888Z,20.70
2017-07-24T14:07:33.811Z,20.90
2017-07-24T14:10:05.090Z,21.20
2017-07-24T14:15:17.735Z,21.20
2017-07-24T14:17:48.149Z,21.00
2017-07-24T14:20:18.216Z,20.90
2017-07-24T14:22:47.612Z,20.70
2017-07-24T14:25:17.520Z,20.50
2017-07-24T14:27:48.921Z,20.40
2017-07-24T14:30:19.097Z,20.40
2017-07-24T14:32:49.768Z,20.30
2017-07-24T14:35:19.580Z,20.20
2017-07-24T14:37:50.475Z,20.10
2017-07-24T14:40:22.625Z,20.10
2017-07-24T14:42:53.872Z,20.20
2017-07-24T14:45:24.011Z,20.00
2017-07-24T14:47:54.860Z,20.00
2017-07-24T14:50:25.735Z,19.80
2017-07-24T14:52:56.910Z,19.80
2017-07-24T14:55:26.985Z,19.80
2017-07-24T14:57:57.325Z,19.70
2017-07-24T15:00:27.511Z,19.60
2017-07-24T15:02:59.563Z,19.60
2017-07-24T15:05:32.636Z,19.50
2017-07-24T15:08:04.260Z,19.40
2017-07-24T15:10:36.163Z,19.40
2017-07-24T15:13:06.855Z,19.30
2017-07-24T15:15:40.802Z,19.70
2017-07-24T15:18:13.743Z,19.70
2017-07-24T15:20:46.599Z,19.70
2017-07-24T15:23:16.952Z,19.70
2017-07-24T15:25:46.801Z,19.70
2017-07-24T15:28:17.457Z,19.70
2017-07-24T15:30:48.916Z,19.60
2017-07-24T15:33:19.065Z,19.60
2017-07-24T15:35:48.805Z,19.60
2017-07-24T15:38:20.338Z,19.60
2017-07-24T15:40:52.503Z,19.60
2017-07-24T15:43:25.789Z,19.50
2017-07-24T15:45:55.417Z,19.50
2017-07-24T15:48:25.734Z,19.40
2017-07-24T15:50:56.934Z,19.30
2017-07-24T15:53:26.182Z,19.30
2017-07-24T15:55:56.295Z,19.30
2017-07-24T15:58:27.859Z,19.40
2017-07-24T16:00:58.122Z,19.40
2017-07-24T16:03:30.475Z,19.20
2017-07-24T16:06:01.028Z,19.10
2017-07-24T16:08:32.432Z,19.10
2017-07-24T16:13:36.431Z,18.70
2017-07-24T16:16:06.593Z,18.70
2017-07-24T16:18:36.482Z,18.60
2017-07-24T16:21:07.567Z,18.50
2017-07-24T16:23:38.114Z,18.50
2017-07-24T16:26:10.793Z,18.50
2017-07-24T16:28:41.225Z,18.50
2017-07-24T16:31:11.175Z,18.50
2017-07-24T16:33:43.332Z,18.50
2017-07-24T16:36:18.423Z,18.50
2017-07-24T16:38:49.683Z,18.60
2017-07-24T16:41:21.740Z,18.80
2017-07-24T16:43:53.733Z,18.80
2017-07-24T16:46:26.220Z,18.70
2017-07-24T16:48:59.233Z,18.70
2017-07-24T16:51:34.108Z,18.50
2017-07-24T16:54:05.239Z,18.50
2017-07-24T16:56:37.759Z,18.40
2017-07-24T16:59:07.695Z,18.40
2017-07-24T17:01:37.778Z,18.40
2017-07-24T17:04:10.321Z,18.30
2017-07-24T17:06:41.324Z,18.30
2017-07-24T17:09:11.658Z,18.10
2017-07-24T17:11:42.784Z,18.10
2017-07-24T17:14:13.937Z,18.00
2017-07-24T17:16:44.123Z,17.90
2017-07-24T17:19:13.341Z,17.60
2017-07-24T17:21:44.090Z,17.50
2017-07-24T17:24:14.702Z,17.50
2017-07-24T17:26:44.173Z,17.30
2017-07-24T17:29:13.544Z,17.20
2017-07-24T17:31:42.780Z,17.30
2017-07-24T17:34:12.916Z,17.20
2017-07-24T17:36:41.046Z,17.20
2017-07-24T17:39:09.150Z,17.10
2017-07-24T17:41:37.388Z,17.00
2017-07-24T17:44:13.386Z,16.90
2017-07-24T17:46:41.464Z,17.00
2017-07-24T17:49:09.612Z,16.90
2017-07-24T17:51:37.784Z,16.70
2017-07-24T17:54:06.759Z,16.50
2017-07-24T17:56:39.584Z,16.40
2017-07-24T17:59:08.478Z,16.20
2017-07-24T18:01:37.985Z,16.10
2017-07-24T18:04:07.835Z,16.00
2017-07-24T18:06:36.863Z,16.00
2017-07-24T18:09:12.059Z,16.00
2017-07-24T18:11:42.521Z,16.00
2017-07-24T18:14:11.321Z,16.00
2017-07-24T18:19:14.413Z,16.00
2017-07-24T18:21:42.499Z,16.00
2017-07-24T18:24:11.472Z,15.90
2017-07-24T18:26:40.450Z,15.90
2017-07-24T18:29:10.251Z,16.00
2017-07-24T18:31:38.340Z,16.00
2017-07-24T18:34:06.480Z,16.10
2017-07-24T18:36:34.612Z,16.10
2017-07-24T18:39:02.739Z,16.10
2017-07-24T18:41:31.638Z,16.10
2017-07-24T18:44:00.505Z,16.00
2017-07-24T18:46:28.625Z,16.00
2017-07-24T18:48:56.868Z,16.00
2017-07-24T18:51:24.981Z,16.00
2017-07-24T18:53:53.308Z,15.90
2017-07-24T18:56:21.497Z,15.90
2017-07-24T18:58:50.371Z,15.80
2017-07-24T19:01:18.491Z,15.80
2017-07-24T19:03:47.356Z,15.80
2017-07-24T19:06:15.556Z,15.80
2017-07-24T19:08:43.709Z,15.80
2017-07-24T19:11:11.825Z,15.80
2017-07-24T19:13:39.988Z,15.70
2017-07-24T19:16:08.133Z,15.70
2017-07-24T19:18:36.241Z,15.70
2017-07-24T19:21:04.476Z,15.70
2017-07-24T19:23:32.578Z,15.70
2017-07-24T19:26:00.740Z,15.60
2017-07-24T19:28:28.843Z,15.60
2017-07-24T19:30:56.979Z,15.60
2017-07-24T19:33:25.225Z,15.60
2017-07-24T19:35:54.148Z,15.70
2017-07-24T19:38:22.242Z,15.70
2017-07-24T19:40:50.397Z,15.70
2017-07-24T19:43:18.535Z,15.70
2017-07-24T19:45:46.650Z,15.70
2017-07-24T19:48:14.749Z,15.70
2017-07-24T19:50:42.874Z,15.70
2017-07-24T19:53:11.016Z,15.70
2017-07-24T19:55:39.900Z,15.60
2017-07-24T19:58:08.021Z,15.60
2017-07-24T20:00:37.497Z,15.60
2017-07-24T20:03:05.592Z,15.60
2017-07-24T20:05:33.739Z,15.70
2017-07-24T20:08:02.625Z,15.80
2017-07-24T20:10:30.744Z,15.80
2017-07-24T20:12:58.897Z,15.80
2017-07-24T20:15:26.996Z,15.80
2017-07-24T20:17:55.249Z,15.70
2017-07-24T20:20:23.347Z,15.70
2017-07-24T20:22:51.453Z,15.70
2017-07-24T20:25:20.367Z,15.70
2017-07-24T20:27:49.322Z,15.70
2017-07-24T20:30:17.425Z,15.60
2017-07-24T20:32:46.302Z,15.70
2017-07-24T20:35:14.463Z,15.70
2017-07-24T20:37:42.575Z,15.60
2017-07-24T20:40:10.736Z,15.70
2017-07-24T20:42:38.819Z,15.70
2017-07-24T20:45:07.068Z,15.80
2017-07-24T20:47:35.190Z,15.80
2017-07-24T20:50:03.330Z,15.80
2017-07-24T20:52:31.487Z,15.90
2017-07-24T20:55:00.357Z,15.90
2017-07-24T20:57:28.468Z,15.80
2017-07-24T20:59:56.642Z,15.90
2017-07-24T21:02:24.751Z,16.00
2017-07-24T21:04:53.011Z,16.00
2017-07-24T21:07:21.116Z,16.00
2017-07-24T21:09:49.429Z,16.00
2017-07-24T21:12:18.925Z,16.10
2017-07-24T21:14:47.805Z,16.10
2017-07-24T21:17:15.946Z,16.00
2017-07-24T21:19:44.047Z,16.10
2017-07-24T21:22:12.174Z,16.10
2017-07-24T21:24:40.304Z,16.00
2017-07-24T21:27:09.169Z,16.00
2017-07-24T21:29:37.418Z,15.90
2017-07-24T21:32:05.560Z,16.00
2017-07-24T21:34:34.407Z,16.10
2017-07-24T21:37:02.568Z,16.00
2017-07-24T21:39:30.683Z,16.10
2017-07-24T21:41:59.561Z,16.10
2017-07-24T21:44:27.800Z,16.00
2017-07-24T21:46:55.905Z,16.10
2017-07-24T21:49:24.042Z,16.10
2017-07-24T21:51:52.159Z,16.10
2017-07-24T21:54:20.266Z,16.20
2017-07-24T21:56:48.394Z,16.20
2017-07-24T21:59:16.500Z,16.20
2017-07-24T22:01:49.752Z,16.20
2017-07-24T22:04:17.858Z,16.10
2017-07-24T22:06:46.288Z,16.10
2017-07-24T22:09:14.472Z,16.10
2017-07-24T22:11:42.564Z,16.10
2017-07-24T22:14:11.491Z,16.00
2017-07-24T22:16:39.584Z,15.90
2017-07-24T22:19:07.729Z,16.00
2017-07-24T22:21:35.833Z,16.00
2017-07-24T22:24:04.087Z,15.90
2017-07-24T22:26:32.200Z,16.00
2017-07-24T22:29:00.287Z,16.00
2017-07-24T22:31:28.436Z,15.90
2017-07-24T22:33:56.536Z,15.80
2017-07-24T22:36:25.388Z,15.70
2017-07-24T22:38:53.614Z,15.70
2017-07-24T22:41:21.716Z,15.60
2017-07-24T22:43:49.840Z,15.50
2017-07-24T22:46:17.992Z,15.60
2017-07-24T22:48:46.094Z,15.60
2017-07-24T22:51:14.220Z,15.60
2017-07-24T22:53:42.329Z,15.60
2017-07-24T22:56:10.440Z,15.50
2017-07-24T22:58:38.677Z,15.60
2017-07-24T23:01:06.777Z,15.60
2017-07-24T23:03:34.911Z,15.60
2017-07-24T23:06:03.028Z,15.60
2017-07-24T23:08:31.151Z,15.50
2017-07-24T23:10:59.275Z,15.60
2017-07-24T23:13:27.529Z,15.60
2017-07-24T23:15:55.604Z,15.60
2017-07-24T23:18:24.461Z,15.60
2017-07-24T23:20:52.582Z,15.50
2017-07-24T23:23:20.687Z,15.50
2017-07-24T23:25:48.821Z,15.50
2017-07-24T23:28:16.940Z,15.50
2017-07-24T23:30:45.172Z,15.50
2017-07-24T23:33:13.264Z,15.50
2017-07-24T23:35:41.398Z,15.60
2017-07-24T23:38:09.520Z,15.60
2017-07-24T23:40:37.611Z,15.50
2017-07-24T23:43:05.739Z,15.60
2017-07-24T23:45:33.982Z,15.60
2017-07-24T23:48:02.077Z,15.50
2017-07-24T23:50:30.239Z,15.60
2017-07-24T23:52:59.126Z,15.50
2017-07-24T23:55:27.222Z,15.50
2017-07-24T23:57:55.340Z,15.60
